sensor_id;sensor_type;location;lat;lon;timestamp;P1;durP1;ratioP1;P2;durP2;ratioP2
14241;SDS011;7205;50.864;12.766;2022-10-31T00:02:14;7.23;;;2.93;;
14241;SDS011;7205;50.864;12.766;2022-10-31T00:04:41;5.83;;;2.97;;
14241;SDS011;7205;50.864;12.766;2022-10-31T00:07:09;4.83;;;2.53;;
14241;SDS011;7205;50.864;12.766;2022-10-31T00:09:37;4.13;;;2.27;;
14241;SDS011;7205;50.864;12.766;2022-10-31T00:12:04;4.73;;;2.27;;
14241;SDS011;7205;50.864;12.766;2022-10-31T00:14:31;7.47;;;3.17;;
14241;SDS011;7205;50.864;12.766;2022-10-31T00:16:58;6.63;;;2.60;;
14241;SDS011;7205;50.864;12.766;2022-10-31T00:19:25;4.30;;;2.40;;
14241;SDS011;7205;50.864;12.766;2022-10-31T00:21:51;5.27;;;2.67;;
14241;SDS011;7205;50.864;12.766;2022-10-31T00:24:18;5.40;;;2.83;;
14241;SDS011;7205;50.864;12.766;2022-10-31T00:26:46;4.37;;;2.27;;
14241;SDS011;7205;50.864;12.766;2022-10-31T00:29:13;3.53;;;2.33;;
14241;SDS011;7205;50.864;12.766;2022-10-31T00:31:40;5.07;;;2.13;;
14241;SDS011;7205;50.864;12.766;2022-10-31T00:34:08;6.27;;;2.33;;
14241;SDS011;7205;50.864;12.766;2022-10-31T00:36:35;5.83;;;3.63;;
14241;SDS011;7205;50.864;12.766;2022-10-31T00:39:01;8.50;;;4.13;;
14241;SDS011;7205;50.864;12.766;2022-10-31T00:41:28;6.67;;;2.50;;
14241;SDS011;7205;50.864;12.766;2022-10-31T00:43:57;5.07;;;2.80;;
14241;SDS011;7205;50.864;12.766;2022-10-31T00:46:24;4.30;;;2.43;;
14241;SDS011;7205;50.864;12.766;2022-10-31T00:48:51;6.53;;;3.00;;
14241;SDS011;7205;50.864;12.766;2022-10-31T00:51:18;2.97;;;2.30;;
14241;SDS011;7205;50.864;12.766;2022-10-31T00:53:45;3.97;;;2.20;;
14241;SDS011;7205;50.864;12.766;2022-10-31T00:56:12;5.80;;;2.90;;
14241;SDS011;7205;50.864;12.766;2022-10-31T00:58:39;6.00;;;2.97;;
14241;SDS011;7205;50.864;12.766;2022-10-31T01:01:09;7.57;;;3.37;;
14241;SDS011;7205;50.864;12.766;2022-10-31T01:03:36;5.97;;;3.13;;
14241;SDS011;7205;50.864;12.766;2022-10-31T01:06:05;4.00;;;2.60;;
14241;SDS011;7205;50.864;12.766;2022-10-31T01:08:46;2.73;;;2.10;;
14241;SDS011;7205;50.864;12.766;2022-10-31T01:11:15;4.70;;;2.70;;
14241;SDS011;7205;50.864;12.766;2022-10-31T01:13:44;4.53;;;2.37;;
14241;SDS011;7205;50.864;12.766;2022-10-31T01:16:13;3.90;;;2.23;;
14241;SDS011;7205;50.864;12.766;2022-10-31T01:18:41;5.50;;;2.03;;
14241;SDS011;7205;50.864;12.766;2022-10-31T01:21:09;6.53;;;2.90;;
14241;SDS011;7205;50.864;12.766;2022-10-31T01:23:38;8.53;;;2.73;;
14241;SDS011;7205;50.864;12.766;2022-10-31T01:26:06;6.93;;;3.27;;
14241;SDS011;7205;50.864;12.766;2022-10-31T01:28:35;6.53;;;2.90;;
14241;SDS011;7205;50.864;12.766;2022-10-31T01:31:04;3.43;;;2.60;;
14241;SDS011;7205;50.864;12.766;2022-10-31T01:33:35;4.20;;;3.17;;
14241;SDS011;7205;50.864;12.766;2022-10-31T01:36:10;6.87;;;3.20;;
14241;SDS011;7205;50.864;12.766;2022-10-31T01:38:38;4.80;;;2.30;;
14241;SDS011;7205;50.864;12.766;2022-10-31T01:41:05;6.17;;;2.57;;
14241;SDS011;7205;50.864;12.766;2022-10-31T01:43:42;5.77;;;3.53;;
14241;SDS011;7205;50.864;12.766;2022-10-31T01:46:10;8.03;;;2.23;;
14241;SDS011;7205;50.864;12.766;2022-10-31T01:48:39;4.13;;;2.80;;
14241;SDS011;7205;50.864;12.766;2022-10-31T01:51:07;6.03;;;2.73;;
14241;SDS011;7205;50.864;12.766;2022-10-31T01:53:37;6.47;;;3.10;;
14241;SDS011;7205;50.864;12.766;2022-10-31T01:56:06;7.33;;;3.87;;
14241;SDS011;7205;50.864;12.766;2022-10-31T01:58:36;2.97;;;2.53;;
14241;SDS011;7205;50.864;12.766;2022-10-31T02:01:03;4.93;;;2.43;;
14241;SDS011;7205;50.864;12.766;2022-10-31T02:03:33;7.03;;;2.43;;
14241;SDS011;7205;50.864;12.766;2022-10-31T02:06:01;5.67;;;2.60;;
14241;SDS011;7205;50.864;12.766;2022-10-31T02:08:34;7.03;;;2.67;;
14241;SDS011;7205;50.864;12.766;2022-10-31T02:11:03;5.80;;;2.60;;
14241;SDS011;7205;50.864;12.766;2022-10-31T02:13:33;4.30;;;2.20;;
14241;SDS011;7205;50.864;12.766;2022-10-31T02:16:00;5.07;;;2.47;;
14241;SDS011;7205;50.864;12.766;2022-10-31T02:18:28;3.87;;;2.13;;
14241;SDS011;7205;50.864;12.766;2022-10-31T02:20:58;7.90;;;2.90;;
14241;SDS011;7205;50.864;12.766;2022-10-31T02:27:03;9.53;;;3.20;;
14241;SDS011;7205;50.864;12.766;2022-10-31T02:29:48;7.53;;;2.40;;
14241;SDS011;7205;50.864;12.766;2022-10-31T02:32:27;3.70;;;2.50;;
14241;SDS011;7205;50.864;12.766;2022-10-31T02:35:02;4.07;;;2.13;;
14241;SDS011;7205;50.864;12.766;2022-10-31T02:37:36;4.87;;;2.50;;
14241;SDS011;7205;50.864;12.766;2022-10-31T02:40:09;4.37;;;2.23;;
14241;SDS011;7205;50.864;12.766;2022-10-31T02:43:02;4.43;;;2.00;;
14241;SDS011;7205;50.864;12.766;2022-10-31T02:45:35;3.57;;;2.23;;
14241;SDS011;7205;50.864;12.766;2022-10-31T02:48:12;4.07;;;2.50;;
14241;SDS011;7205;50.864;12.766;2022-10-31T02:50:45;6.27;;;2.93;;
14241;SDS011;7205;50.864;12.766;2022-10-31T02:53:16;7.37;;;2.47;;
14241;SDS011;7205;50.864;12.766;2022-10-31T02:55:51;5.67;;;2.60;;
14241;SDS011;7205;50.864;12.766;2022-10-31T02:58:26;7.63;;;3.30;;
14241;SDS011;7205;50.864;12.766;2022-10-31T03:01:12;5.53;;;3.00;;
14241;SDS011;7205;50.864;12.766;2022-10-31T03:06:45;4.97;;;2.43;;
14241;SDS011;7205;50.864;12.766;2022-10-31T03:09:21;5.10;;;2.10;;
14241;SDS011;7205;50.864;12.766;2022-10-31T03:11:56;7.57;;;2.43;;
14241;SDS011;7205;50.864;12.766;2022-10-31T03:14:31;5.87;;;3.40;;
14241;SDS011;7205;50.864;12.766;2022-10-31T03:17:05;3.50;;;2.33;;
14241;SDS011;7205;50.864;12.766;2022-10-31T03:19:41;4.13;;;2.27;;
14241;SDS011;7205;50.864;12.766;2022-10-31T03:22:15;5.63;;;3.20;;
14241;SDS011;7205;50.864;12.766;2022-10-31T03:24:44;6.67;;;3.13;;
14241;SDS011;7205;50.864;12.766;2022-10-31T03:27:14;5.60;;;2.70;;
14241;SDS011;7205;50.864;12.766;2022-10-31T03:29:54;6.30;;;3.87;;
14241;SDS011;7205;50.864;12.766;2022-10-31T03:32:23;6.90;;;2.77;;
14241;SDS011;7205;50.864;12.766;2022-10-31T03:34:57;6.53;;;2.50;;
14241;SDS011;7205;50.864;12.766;2022-10-31T03:37:27;5.07;;;3.00;;
14241;SDS011;7205;50.864;12.766;2022-10-31T03:39:58;5.80;;;2.90;;
14241;SDS011;7205;50.864;12.766;2022-10-31T03:42:30;5.30;;;3.20;;
14241;SDS011;7205;50.864;12.766;2022-10-31T03:45:01;8.13;;;2.90;;
14241;SDS011;7205;50.864;12.766;2022-10-31T03:47:35;5.33;;;2.57;;
14241;SDS011;7205;50.864;12.766;2022-10-31T03:50:06;6.77;;;3.00;;
14241;SDS011;7205;50.864;12.766;2022-10-31T03:52:35;5.37;;;2.90;;
14241;SDS011;7205;50.864;12.766;2022-10-31T03:55:09;5.37;;;2.80;;
14241;SDS011;7205;50.864;12.766;2022-10-31T03:57:43;4.60;;;2.97;;
14241;SDS011;7205;50.864;12.766;2022-10-31T04:00:18;6.37;;;3.10;;
14241;SDS011;7205;50.864;12.766;2022-10-31T04:02:47;4.10;;;3.03;;
14241;SDS011;7205;50.864;12.766;2022-10-31T04:05:21;8.63;;;2.93;;
14241;SDS011;7205;50.864;12.766;2022-10-31T04:07:53;4.17;;;2.70;;
14241;SDS011;7205;50.864;12.766;2022-10-31T04:10:22;6.07;;;2.87;;
14241;SDS011;7205;50.864;12.766;2022-10-31T04:12:54;7.77;;;3.00;;
14241;SDS011;7205;50.864;12.766;2022-10-31T04:15:29;5.67;;;3.33;;
14241;SDS011;7205;50.864;12.766;2022-10-31T04:17:59;6.07;;;2.87;;
14241;SDS011;7205;50.864;12.766;2022-10-31T04:20:32;6.37;;;2.87;;
14241;SDS011;7205;50.864;12.766;2022-10-31T04:23:00;5.50;;;4.47;;
14241;SDS011;7205;50.864;12.766;2022-10-31T04:25:27;5.07;;;3.33;;
14241;SDS011;7205;50.864;12.766;2022-10-31T04:28:17;5.57;;;3.30;;
14241;SDS011;7205;50.864;12.766;2022-10-31T04:30:44;4.53;;;3.60;;
14241;SDS011;7205;50.864;12.766;2022-10-31T04:33:11;7.53;;;3.57;;
14241;SDS011;7205;50.864;12.766;2022-10-31T04:35:40;6.10;;;3.30;;
14241;SDS011;7205;50.864;12.766;2022-10-31T04:38:09;6.00;;;3.40;;
14241;SDS011;7205;50.864;12.766;2022-10-31T04:40:37;9.47;;;3.60;;
14241;SDS011;7205;50.864;12.766;2022-10-31T04:43:13;7.50;;;3.10;;
14241;SDS011;7205;50.864;12.766;2022-10-31T04:45:42;6.97;;;3.13;;
14241;SDS011;7205;50.864;12.766;2022-10-31T04:48:10;8.60;;;2.97;;
14241;SDS011;7205;50.864;12.766;2022-10-31T04:50:40;7.20;;;3.83;;
14241;SDS011;7205;50.864;12.766;2022-10-31T04:53:07;14.07;;;4.77;;
14241;SDS011;7205;50.864;12.766;2022-10-31T04:55:45;9.63;;;3.37;;
14241;SDS011;7205;50.864;12.766;2022-10-31T04:58:17;6.10;;;3.50;;
14241;SDS011;7205;50.864;12.766;2022-10-31T05:00:44;4.00;;;2.83;;
14241;SDS011;7205;50.864;12.766;2022-10-31T05:03:11;5.77;;;4.17;;
14241;SDS011;7205;50.864;12.766;2022-10-31T05:05:41;3.57;;;2.80;;
14241;SDS011;7205;50.864;12.766;2022-10-31T05:08:08;5.80;;;3.80;;
14241;SDS011;7205;50.864;12.766;2022-10-31T05:10:35;9.63;;;3.43;;
14241;SDS011;7205;50.864;12.766;2022-10-31T05:13:04;5.90;;;3.17;;
14241;SDS011;7205;50.864;12.766;2022-10-31T05:15:50;4.00;;;2.80;;
14241;SDS011;7205;50.864;12.766;2022-10-31T05:18:35;6.00;;;3.00;;
14241;SDS011;7205;50.864;12.766;2022-10-31T05:21:22;8.57;;;4.53;;
14241;SDS011;7205;50.864;12.766;2022-10-31T05:23:57;6.73;;;3.30;;
14241;SDS011;7205;50.864;12.766;2022-10-31T05:26:24;5.13;;;3.57;;
14241;SDS011;7205;50.864;12.766;2022-10-31T05:28:53;6.10;;;3.87;;
14241;SDS011;7205;50.864;12.766;2022-10-31T05:31:19;8.97;;;4.33;;
14241;SDS011;7205;50.864;12.766;2022-10-31T05:33:48;6.70;;;3.10;;
14241;SDS011;7205;50.864;12.766;2022-10-31T05:36:34;10.30;;;5.03;;
14241;SDS011;7205;50.864;12.766;2022-10-31T05:39:08;8.50;;;3.90;;
14241;SDS011;7205;50.864;12.766;2022-10-31T05:41:41;13.30;;;4.83;;
14241;SDS011;7205;50.864;12.766;2022-10-31T05:44:14;7.27;;;5.93;;
14241;SDS011;7205;50.864;12.766;2022-10-31T05:47:01;9.13;;;7.23;;
14241;SDS011;7205;50.864;12.766;2022-10-31T05:49:51;11.13;;;4.60;;
14241;SDS011;7205;50.864;12.766;2022-10-31T05:52:38;7.53;;;3.33;;
14241;SDS011;7205;50.864;12.766;2022-10-31T05:55:15;9.50;;;6.47;;
14241;SDS011;7205;50.864;12.766;2022-10-31T05:57:57;6.30;;;4.33;;
14241;SDS011;7205;50.864;12.766;2022-10-31T06:00:24;5.50;;;3.23;;
14241;SDS011;7205;50.864;12.766;2022-10-31T06:02:57;8.83;;;4.60;;
14241;SDS011;7205;50.864;12.766;2022-10-31T06:05:39;6.80;;;4.33;;
14241;SDS011;7205;50.864;12.766;2022-10-31T06:08:08;8.03;;;4.20;;
14241;SDS011;7205;50.864;12.766;2022-10-31T06:10:37;9.07;;;5.77;;
14241;SDS011;7205;50.864;12.766;2022-10-31T06:13:04;13.13;;;5.73;;
14241;SDS011;7205;50.864;12.766;2022-10-31T06:15:46;5.27;;;3.30;;
14241;SDS011;7205;50.864;12.766;2022-10-31T06:18:19;7.63;;;4.40;;
14241;SDS011;7205;50.864;12.766;2022-10-31T06:20:52;7.30;;;4.07;;
14241;SDS011;7205;50.864;12.766;2022-10-31T06:23:23;8.60;;;3.90;;
14241;SDS011;7205;50.864;12.766;2022-10-31T06:26:10;8.80;;;4.73;;
14241;SDS011;7205;50.864;12.766;2022-10-31T06:28:37;7.83;;;4.63;;
14241;SDS011;7205;50.864;12.766;2022-10-31T06:31:23;7.10;;;4.37;;
14241;SDS011;7205;50.864;12.766;2022-10-31T06:33:53;10.60;;;6.47;;
14241;SDS011;7205;50.864;12.766;2022-10-31T06:36:25;10.17;;;4.67;;
14241;SDS011;7205;50.864;12.766;2022-10-31T06:38:54;8.67;;;3.57;;
14241;SDS011;7205;50.864;12.766;2022-10-31T06:41:23;6.17;;;3.60;;
14241;SDS011;7205;50.864;12.766;2022-10-31T06:43:51;7.10;;;4.17;;
14241;SDS011;7205;50.864;12.766;2022-10-31T06:46:34;6.13;;;4.40;;
14241;SDS011;7205;50.864;12.766;2022-10-31T06:49:17;6.27;;;3.37;;
14241;SDS011;7205;50.864;12.766;2022-10-31T06:51:53;9.80;;;4.50;;
14241;SDS011;7205;50.864;12.766;2022-10-31T06:54:22;8.10;;;4.33;;
14241;SDS011;7205;50.864;12.766;2022-10-31T06:56:49;18.27;;;12.17;;
14241;SDS011;7205;50.864;12.766;2022-10-31T06:59:16;8.83;;;5.50;;
14241;SDS011;7205;50.864;12.766;2022-10-31T07:02:02;12.30;;;6.33;;
14241;SDS011;7205;50.864;12.766;2022-10-31T07:04:29;11.13;;;5.23;;
14241;SDS011;7205;50.864;12.766;2022-10-31T07:06:56;6.80;;;4.30;;
14241;SDS011;7205;50.864;12.766;2022-10-31T07:09:24;4.27;;;3.90;;
14241;SDS011;7205;50.864;12.766;2022-10-31T07:11:51;8.83;;;3.87;;
14241;SDS011;7205;50.864;12.766;2022-10-31T07:14:18;8.70;;;3.70;;
14241;SDS011;7205;50.864;12.766;2022-10-31T07:16:47;7.80;;;4.03;;
14241;SDS011;7205;50.864;12.766;2022-10-31T07:19:15;5.90;;;3.60;;
14241;SDS011;7205;50.864;12.766;2022-10-31T07:21:42;5.63;;;5.07;;
14241;SDS011;7205;50.864;12.766;2022-10-31T07:24:13;5.97;;;3.90;;
14241;SDS011;7205;50.864;12.766;2022-10-31T07:26:45;4.07;;;3.50;;
14241;SDS011;7205;50.864;12.766;2022-10-31T07:29:13;7.70;;;3.83;;
14241;SDS011;7205;50.864;12.766;2022-10-31T07:31:40;11.67;;;4.30;;
14241;SDS011;7205;50.864;12.766;2022-10-31T07:34:15;7.53;;;4.07;;
14241;SDS011;7205;50.864;12.766;2022-10-31T07:37:00;6.27;;;3.83;;
14241;SDS011;7205;50.864;12.766;2022-10-31T07:39:28;5.27;;;3.90;;
14241;SDS011;7205;50.864;12.766;2022-10-31T07:41:59;5.10;;;3.70;;
14241;SDS011;7205;50.864;12.766;2022-10-31T07:44:26;7.30;;;4.30;;
14241;SDS011;7205;50.864;12.766;2022-10-31T07:47:12;12.83;;;4.13;;
14241;SDS011;7205;50.864;12.766;2022-10-31T07:50:04;6.50;;;5.03;;
14241;SDS011;7205;50.864;12.766;2022-10-31T07:52:57;6.47;;;4.83;;
14241;SDS011;7205;50.864;12.766;2022-10-31T07:55:54;9.30;;;5.43;;
14241;SDS011;7205;50.864;12.766;2022-10-31T07:58:30;9.13;;;4.67;;
14241;SDS011;7205;50.864;12.766;2022-10-31T08:00:58;13.83;;;6.73;;
14241;SDS011;7205;50.864;12.766;2022-10-31T08:03:35;9.90;;;5.87;;
14241;SDS011;7205;50.864;12.766;2022-10-31T08:09:19;10.20;;;3.80;;
14241;SDS011;7205;50.864;12.766;2022-10-31T08:11:48;5.97;;;3.80;;
14241;SDS011;7205;50.864;12.766;2022-10-31T08:14:17;5.47;;;3.70;;
14241;SDS011;7205;50.864;12.766;2022-10-31T08:16:44;6.23;;;3.43;;
14241;SDS011;7205;50.864;12.766;2022-10-31T08:19:12;8.17;;;3.33;;
14241;SDS011;7205;50.864;12.766;2022-10-31T08:21:42;6.27;;;4.23;;
14241;SDS011;7205;50.864;12.766;2022-10-31T08:24:10;7.27;;;3.10;;
14241;SDS011;7205;50.864;12.766;2022-10-31T08:26:38;9.10;;;3.63;;
14241;SDS011;7205;50.864;12.766;2022-10-31T08:29:08;6.20;;;3.83;;
14241;SDS011;7205;50.864;12.766;2022-10-31T08:31:41;7.40;;;3.10;;
14241;SDS011;7205;50.864;12.766;2022-10-31T08:34:39;9.63;;;3.40;;
14241;SDS011;7205;50.864;12.766;2022-10-31T08:37:25;7.03;;;3.20;;
14241;SDS011;7205;50.864;12.766;2022-10-31T08:39:54;7.53;;;3.37;;
14241;SDS011;7205;50.864;12.766;2022-10-31T08:42:21;4.53;;;3.00;;
14241;SDS011;7205;50.864;12.766;2022-10-31T08:44:48;6.20;;;2.83;;
14241;SDS011;7205;50.864;12.766;2022-10-31T08:47:18;6.43;;;3.10;;
14241;SDS011;7205;50.864;12.766;2022-10-31T08:49:46;11.63;;;4.33;;
14241;SDS011;7205;50.864;12.766;2022-10-31T08:52:13;6.87;;;3.57;;
14241;SDS011;7205;50.864;12.766;2022-10-31T08:54:42;8.33;;;3.57;;
14241;SDS011;7205;50.864;12.766;2022-10-31T08:57:28;11.00;;;3.40;;
14241;SDS011;7205;50.864;12.766;2022-10-31T08:59:57;5.80;;;3.17;;
14241;SDS011;7205;50.864;12.766;2022-10-31T09:02:46;7.17;;;3.30;;
14241;SDS011;7205;50.864;12.766;2022-10-31T09:05:13;5.20;;;4.17;;
14241;SDS011;7205;50.864;12.766;2022-10-31T09:07:42;17.43;;;8.73;;
14241;SDS011;7205;50.864;12.766;2022-10-31T09:10:09;6.50;;;3.73;;
14241;SDS011;7205;50.864;12.766;2022-10-31T09:12:37;7.13;;;3.47;;
14241;SDS011;7205;50.864;12.766;2022-10-31T09:15:22;11.50;;;4.20;;
14241;SDS011;7205;50.864;12.766;2022-10-31T09:18:12;8.97;;;4.10;;
14241;SDS011;7205;50.864;12.766;2022-10-31T09:20:56;8.00;;;3.50;;
14241;SDS011;7205;50.864;12.766;2022-10-31T09:23:26;7.07;;;3.90;;
14241;SDS011;7205;50.864;12.766;2022-10-31T09:25:53;7.57;;;4.17;;
14241;SDS011;7205;50.864;12.766;2022-10-31T09:28:39;13.70;;;6.80;;
14241;SDS011;7205;50.864;12.766;2022-10-31T09:31:11;11.77;;;4.83;;
14241;SDS011;7205;50.864;12.766;2022-10-31T09:34:03;7.87;;;4.37;;
14241;SDS011;7205;50.864;12.766;2022-10-31T09:36:52;5.33;;;3.53;;
14241;SDS011;7205;50.864;12.766;2022-10-31T09:39:39;6.83;;;4.40;;
14241;SDS011;7205;50.864;12.766;2022-10-31T09:42:35;5.70;;;3.47;;
14241;SDS011;7205;50.864;12.766;2022-10-31T09:45:23;9.83;;;3.70;;
14241;SDS011;7205;50.864;12.766;2022-10-31T09:48:06;11.23;;;3.90;;
14241;SDS011;7205;50.864;12.766;2022-10-31T09:55:20;9.47;;;3.90;;
14241;SDS011;7205;50.864;12.766;2022-10-31T09:59:11;12.03;;;4.57;;
14241;SDS011;7205;50.864;12.766;2022-10-31T10:01:53;9.53;;;3.80;;
14241;SDS011;7205;50.864;12.766;2022-10-31T10:04:29;11.23;;;4.30;;
14241;SDS011;7205;50.864;12.766;2022-10-31T10:07:13;10.23;;;4.07;;
14241;SDS011;7205;50.864;12.766;2022-10-31T10:10:13;6.90;;;4.53;;
14241;SDS011;7205;50.864;12.766;2022-10-31T10:13:20;7.17;;;4.23;;
14241;SDS011;7205;50.864;12.766;2022-10-31T10:16:15;9.27;;;5.00;;
14241;SDS011;7205;50.864;12.766;2022-10-31T10:26:56;8.20;;;4.13;;
14241;SDS011;7205;50.864;12.766;2022-10-31T10:29:57;7.97;;;4.93;;
14241;SDS011;7205;50.864;12.766;2022-10-31T10:32:28;10.40;;;5.00;;
14241;SDS011;7205;50.864;12.766;2022-10-31T10:35:07;7.30;;;4.30;;
14241;SDS011;7205;50.864;12.766;2022-10-31T10:37:43;13.43;;;5.10;;
14241;SDS011;7205;50.864;12.766;2022-10-31T10:40:13;6.80;;;4.63;;
14241;SDS011;7205;50.864;12.766;2022-10-31T10:42:44;7.10;;;5.57;;
14241;SDS011;7205;50.864;12.766;2022-10-31T10:45:37;8.67;;;4.70;;
14241;SDS011;7205;50.864;12.766;2022-10-31T10:48:27;10.93;;;5.27;;
14241;SDS011;7205;50.864;12.766;2022-10-31T10:55:32;8.07;;;4.33;;
14241;SDS011;7205;50.864;12.766;2022-10-31T10:58:29;6.20;;;4.53;;
14241;SDS011;7205;50.864;12.766;2022-10-31T11:01:13;7.63;;;4.63;;
14241;SDS011;7205;50.864;12.766;2022-10-31T11:04:50;11.73;;;4.57;;
14241;SDS011;7205;50.864;12.766;2022-10-31T11:11:23;9.77;;;4.40;;
14241;SDS011;7205;50.864;12.766;2022-10-31T11:14:17;8.80;;;4.20;;
14241;SDS011;7205;50.864;12.766;2022-10-31T11:16:46;9.40;;;4.27;;
14241;SDS011;7205;50.864;12.766;2022-10-31T11:19:16;8.20;;;4.00;;
14241;SDS011;7205;50.864;12.766;2022-10-31T11:21:45;7.67;;;4.20;;
14241;SDS011;7205;50.864;12.766;2022-10-31T11:24:14;7.47;;;4.40;;
14241;SDS011;7205;50.864;12.766;2022-10-31T11:26:43;9.33;;;4.67;;
14241;SDS011;7205;50.864;12.766;2022-10-31T11:29:13;10.70;;;4.50;;
14241;SDS011;7205;50.864;12.766;2022-10-31T11:31:44;9.93;;;3.83;;
14241;SDS011;7205;50.864;12.766;2022-10-31T11:34:15;9.90;;;3.90;;
14241;SDS011;7205;50.864;12.766;2022-10-31T11:36:48;10.17;;;3.90;;
14241;SDS011;7205;50.864;12.766;2022-10-31T11:39:16;9.33;;;4.00;;
14241;SDS011;7205;50.864;12.766;2022-10-31T11:41:47;6.50;;;3.63;;
14241;SDS011;7205;50.864;12.766;2022-10-31T11:44:16;7.67;;;3.70;;
14241;SDS011;7205;50.864;12.766;2022-10-31T11:46:47;12.37;;;4.07;;
14241;SDS011;7205;50.864;12.766;2022-10-31T11:49:17;7.20;;;3.70;;
14241;SDS011;7205;50.864;12.766;2022-10-31T11:51:47;8.53;;;3.90;;
14241;SDS011;7205;50.864;12.766;2022-10-31T11:54:23;7.13;;;3.60;;
14241;SDS011;7205;50.864;12.766;2022-10-31T11:56:54;9.73;;;3.73;;
14241;SDS011;7205;50.864;12.766;2022-10-31T11:59:22;8.93;;;4.50;;
14241;SDS011;7205;50.864;12.766;2022-10-31T12:01:53;11.17;;;3.70;;
14241;SDS011;7205;50.864;12.766;2022-10-31T12:04:32;6.43;;;3.20;;
14241;SDS011;7205;50.864;12.766;2022-10-31T12:07:06;5.83;;;3.27;;
14241;SDS011;7205;50.864;12.766;2022-10-31T12:09:34;5.53;;;3.57;;
14241;SDS011;7205;50.864;12.766;2022-10-31T12:15:01;5.47;;;3.83;;
14241;SDS011;7205;50.864;12.766;2022-10-31T12:17:52;5.40;;;3.67;;
14241;SDS011;7205;50.864;12.766;2022-10-31T12:20:26;6.67;;;3.97;;
14241;SDS011;7205;50.864;12.766;2022-10-31T12:23:03;7.93;;;3.83;;
14241;SDS011;7205;50.864;12.766;2022-10-31T12:25:44;6.63;;;4.03;;
14241;SDS011;7205;50.864;12.766;2022-10-31T12:31:19;6.90;;;3.70;;
14241;SDS011;7205;50.864;12.766;2022-10-31T12:34:14;5.10;;;3.60;;
14241;SDS011;7205;50.864;12.766;2022-10-31T12:36:53;13.57;;;3.70;;
14241;SDS011;7205;50.864;12.766;2022-10-31T12:39:34;5.27;;;3.90;;
14241;SDS011;7205;50.864;12.766;2022-10-31T12:42:13;7.70;;;3.63;;
14241;SDS011;7205;50.864;12.766;2022-10-31T12:44:53;5.70;;;3.27;;
14241;SDS011;7205;50.864;12.766;2022-10-31T12:47:41;9.43;;;3.83;;
14241;SDS011;7205;50.864;12.766;2022-10-31T12:50:25;8.27;;;4.07;;
14241;SDS011;7205;50.864;12.766;2022-10-31T12:53:03;11.03;;;3.77;;
14241;SDS011;7205;50.864;12.766;2022-10-31T12:55:47;5.57;;;3.47;;
14241;SDS011;7205;50.864;12.766;2022-10-31T12:58:23;9.27;;;3.90;;
14241;SDS011;7205;50.864;12.766;2022-10-31T13:00:57;9.60;;;3.50;;
14241;SDS011;7205;50.864;12.766;2022-10-31T13:03:35;8.03;;;2.93;;
14241;SDS011;7205;50.864;12.766;2022-10-31T13:06:13;7.20;;;3.13;;
14241;SDS011;7205;50.864;12.766;2022-10-31T13:08:45;6.43;;;2.90;;
14241;SDS011;7205;50.864;12.766;2022-10-31T13:11:16;5.63;;;2.80;;
14241;SDS011;7205;50.864;12.766;2022-10-31T13:13:49;8.37;;;3.00;;
14241;SDS011;7205;50.864;12.766;2022-10-31T13:16:24;5.60;;;3.20;;
14241;SDS011;7205;50.864;12.766;2022-10-31T13:18:55;7.53;;;3.23;;
14241;SDS011;7205;50.864;12.766;2022-10-31T13:21:30;7.43;;;3.43;;
14241;SDS011;7205;50.864;12.766;2022-10-31T13:24:02;8.03;;;3.03;;
14241;SDS011;7205;50.864;12.766;2022-10-31T13:26:36;6.50;;;2.60;;
14241;SDS011;7205;50.864;12.766;2022-10-31T13:29:08;8.67;;;2.83;;
14241;SDS011;7205;50.864;12.766;2022-10-31T13:31:43;6.37;;;2.90;;
14241;SDS011;7205;50.864;12.766;2022-10-31T13:34:12;10.77;;;3.20;;
14241;SDS011;7205;50.864;12.766;2022-10-31T13:36:50;5.77;;;2.90;;
14241;SDS011;7205;50.864;12.766;2022-10-31T13:39:26;6.73;;;2.93;;
14241;SDS011;7205;50.864;12.766;2022-10-31T13:42:02;6.03;;;2.90;;
14241;SDS011;7205;50.864;12.766;2022-10-31T13:44:36;8.10;;;3.40;;
14241;SDS011;7205;50.864;12.766;2022-10-31T13:47:04;6.90;;;2.97;;
14241;SDS011;7205;50.864;12.766;2022-10-31T13:49:47;4.83;;;3.07;;
14241;SDS011;7205;50.864;12.766;2022-10-31T13:52:16;5.60;;;2.70;;
14241;SDS011;7205;50.864;12.766;2022-10-31T13:54:50;6.40;;;3.00;;
14241;SDS011;7205;50.864;12.766;2022-10-31T13:57:29;6.27;;;3.37;;
14241;SDS011;7205;50.864;12.766;2022-10-31T13:59:59;8.60;;;3.33;;
14241;SDS011;7205;50.864;12.766;2022-10-31T14:02:37;6.73;;;3.20;;
14241;SDS011;7205;50.864;12.766;2022-10-31T14:05:18;7.97;;;3.30;;
14241;SDS011;7205;50.864;12.766;2022-10-31T14:07:51;5.80;;;3.00;;
14241;SDS011;7205;50.864;12.766;2022-10-31T14:10:20;9.70;;;3.80;;
14241;SDS011;7205;50.864;12.766;2022-10-31T14:12:52;8.20;;;3.43;;
14241;SDS011;7205;50.864;12.766;2022-10-31T14:15:29;5.70;;;3.30;;
14241;SDS011;7205;50.864;12.766;2022-10-31T14:17:57;3.87;;;3.17;;
14241;SDS011;7205;50.864;12.766;2022-10-31T14:20:34;7.10;;;3.60;;
14241;SDS011;7205;50.864;12.766;2022-10-31T14:23:13;4.43;;;3.50;;
14241;SDS011;7205;50.864;12.766;2022-10-31T14:26:05;7.30;;;4.43;;
14241;SDS011;7205;50.864;12.766;2022-10-31T14:28:44;7.10;;;3.50;;
14241;SDS011;7205;50.864;12.766;2022-10-31T14:31:25;8.27;;;3.57;;
14241;SDS011;7205;50.864;12.766;2022-10-31T14:33:57;6.10;;;4.23;;
14241;SDS011;7205;50.864;12.766;2022-10-31T14:36:25;10.23;;;3.90;;
14241;SDS011;7205;50.864;12.766;2022-10-31T14:39:02;7.30;;;4.40;;
14241;SDS011;7205;50.864;12.766;2022-10-31T14:41:41;11.20;;;3.77;;
14241;SDS011;7205;50.864;12.766;2022-10-31T14:47:29;5.87;;;4.17;;
14241;SDS011;7205;50.864;12.766;2022-10-31T14:50:07;8.73;;;4.93;;
14241;SDS011;7205;50.864;12.766;2022-10-31T14:52:44;7.47;;;4.20;;
14241;SDS011;7205;50.864;12.766;2022-10-31T14:55:16;8.13;;;4.20;;
14241;SDS011;7205;50.864;12.766;2022-10-31T14:57:48;9.67;;;4.60;;
14241;SDS011;7205;50.864;12.766;2022-10-31T15:00:19;8.97;;;4.87;;
14241;SDS011;7205;50.864;12.766;2022-10-31T15:02:53;9.30;;;4.57;;
14241;SDS011;7205;50.864;12.766;2022-10-31T15:07:18;7.47;;;4.90;;
14241;SDS011;7205;50.864;12.766;2022-10-31T15:09:22;8.03;;;5.40;;
14241;SDS011;7205;50.864;12.766;2022-10-31T15:15:32;8.73;;;5.90;;
14241;SDS011;7205;50.864;12.766;2022-10-31T15:18:05;8.97;;;5.57;;
14241;SDS011;7205;50.864;12.766;2022-10-31T15:20:52;8.83;;;5.93;;
14241;SDS011;7205;50.864;12.766;2022-10-31T15:23:49;10.97;;;6.03;;
14241;SDS011;7205;50.864;12.766;2022-10-31T15:26:52;10.83;;;5.73;;
14241;SDS011;7205;50.864;12.766;2022-10-31T15:29:48;10.10;;;6.23;;
14241;SDS011;7205;50.864;12.766;2022-10-31T15:32:27;8.27;;;5.60;;
14241;SDS011;7205;50.864;12.766;2022-10-31T15:35:34;9.20;;;5.90;;
14241;SDS011;7205;50.864;12.766;2022-10-31T15:38:17;11.37;;;5.57;;
14241;SDS011;7205;50.864;12.766;2022-10-31T15:43:59;13.73;;;5.87;;
14241;SDS011;7205;50.864;12.766;2022-10-31T15:46:29;11.10;;;6.10;;
14241;SDS011;7205;50.864;12.766;2022-10-31T15:48:58;8.60;;;6.10;;
14241;SDS011;7205;50.864;12.766;2022-10-31T15:51:27;9.80;;;6.03;;
14241;SDS011;7205;50.864;12.766;2022-10-31T15:53:57;6.93;;;6.17;;
14241;SDS011;7205;50.864;12.766;2022-10-31T15:56:26;8.93;;;5.83;;
14241;SDS011;7205;50.864;12.766;2022-10-31T15:58:55;10.63;;;6.10;;
14241;SDS011;7205;50.864;12.766;2022-10-31T16:01:24;12.43;;;7.60;;
14241;SDS011;7205;50.864;12.766;2022-10-31T16:04:05;12.80;;;7.53;;
14241;SDS011;7205;50.864;12.766;2022-10-31T16:06:55;11.90;;;8.87;;
14241;SDS011;7205;50.864;12.766;2022-10-31T16:09:25;14.47;;;8.20;;
14241;SDS011;7205;50.864;12.766;2022-10-31T16:11:52;13.93;;;7.80;;
14241;SDS011;7205;50.864;12.766;2022-10-31T16:14:22;11.53;;;8.17;;
14241;SDS011;7205;50.864;12.766;2022-10-31T16:16:52;16.17;;;9.57;;
14241;SDS011;7205;50.864;12.766;2022-10-31T16:19:24;10.03;;;7.97;;